Nearby METAR Reports

 

KFFZ - Mesa/Falcon Fld, Arizona, USA
Distance from station: ENE 9mi, 15km
Updated: Thu, 16-Aug-2018 7:47pm MST
NOT Current
Mostly Cloudy
Mostly Cloudy
 Wind from WNW
Wind: WNW 8 mph , 13 km/h
Temperature: 90°F , 32°C
Heat Index: 93°F , 34°C
Dew Point: 66°F , 19°C
Humidity: 46%
Barometer: 29.99 inHg , 1015.6 hPa
Clouds: Mostly Cloudy
Visibility: 40 miles , 64 km
Cloud details: Partly Cloudy 10000 ft
Mostly Cloudy 15000 ft
2018/08/17 02:47 KFFZ 170247Z 30007KT 40SM SCT100 BKN150 32/19 A2999
KIWA - Chandler/Mesa, Arizona, USA
Distance from station: ESE 14mi, 22km
Updated: Fri, 17-Aug-2018 12:55am MST
Clear
Clear
 Wind from NNW
Wind: NNW 6 mph , 9 km/h
Temperature: 86°F , 30°C
Heat Index: 89°F , 32°C
Dew Point: 68°F , 20°C
Humidity: 55%
Barometer: 30.03 inHg , 1016.9 hPa
Clouds: Clear
Visibility: 10 miles , 16 km
2018/08/17 07:55 KIWA 170755Z AUTO 33005KT 10SM CLR 30/20 A3003 RMK AO2 T02980201
 
KFLG - Flagstaff, Arizona, USA
Distance from station: N 120mi, 193km
Updated: Fri, 17-Aug-2018 12:57am MST
Overcast
Overcast
 Wind from SSW
Wind: SSW 3 mph , 6 km/h
Temperature: 57°F , 14°C
Dew Point: 55°F , 13°C
Humidity: 94%
Barometer: 30.40 inHg , 1029.5 hPa
Clouds: Overcast
Visibility: 10 miles , 16 km
Cloud details: Overcast 10000 ft
2018/08/17 07:57 KFLG 170757Z AUTO 20003KT 10SM OVC100 14/13 A3040 RMK AO2 SLP185 T01440128
KTUS - Tucson, Arizona, USA
Distance from station: SSE 102mi, 164km
Updated: Fri, 17-Aug-2018 12:53am MST
Clear
Clear
 Wind from SSE
Wind: SSE 7 mph , 11 km/h
Temperature: 79°F , 26°C
Dew Point: 68°F , 20°C
Humidity: 70%
Barometer: 30.13 inHg , 1020.3 hPa
Clouds: Clear
Visibility: 10 miles , 16 km
2018/08/17 07:53 KTUS 170753Z 15006KT 10SM CLR 26/20 A3013 RMK AO2 SLP153 T02560200
 
KSOW - Show Low Municip, Arizona, USA
Distance from station: ENE 122mi, 196km
Updated: Fri, 17-Aug-2018 12:55am MST
Clear
Clear
 Wind from SW
Wind: SW 6 mph , 9 km/h
Temperature: 63°F , 17°C
Dew Point: 57°F , 14°C
Humidity: 83%
Barometer: 30.37 inHg , 1028.4 hPa
Clouds: Clear
Visibility: 10 miles , 16 km
2018/08/17 07:55 KSOW 170755Z AUTO 22005KT 10SM CLR 17/14 A3037 RMK AO2
KINW - Winslow, Arizona, USA
Distance from station: NNE 130mi, 209km
Updated: Fri, 17-Aug-2018 12:56am MST
Overcast
Overcast
 Wind from SSE
Wind: SSE 7 mph , 11 km/h
Temperature: 73°F , 23°C
Dew Point: 61°F , 16°C
Humidity: 65%
Barometer: 30.25 inHg , 1024.4 hPa
Clouds: Overcast
Visibility: 10 miles , 16 km
Cloud details: Overcast 11000 ft
2018/08/17 07:56 KINW 170756Z AUTO 16006KT 10SM OVC110 23/16 A3025 RMK AO2 SLP159 T02330156
 
KPRC - Prescott, Arizona, USA
Distance from station: NNW 92mi, 148km
Updated: Fri, 17-Aug-2018 12:53am MST
Partly Cloudy
Partly Cloudy
 Wind from S
Wind: S 5 mph , 7 km/h
Temperature: 70°F , 21°C
Dew Point: 63°F , 17°C
Humidity: 78%
Barometer: 30.28 inHg , 1025.4 hPa
Clouds: Partly Cloudy
Visibility: 10 miles , 16 km
Cloud details: Partly Cloudy 11000 ft
2018/08/17 07:53 KPRC 170753Z 17004KT 10SM SCT110 21/17 A3028 RMK AO2 SLP174 T02060172
KPAN - Payson, Arizona, USA
Distance from station: NNE 66mi, 106km
Updated: Fri, 17-Aug-2018 12:55am MST
Clear
Clear
 Wind from calm
Wind: Calm
Temperature: 66°F , 19°C
Dew Point: 63°F , 17°C
Humidity: 88%
Barometer: 30.29 inHg , 1025.7 hPa
Clouds: Clear
Visibility: 10 miles , 16 km
2018/08/17 07:55 KPAN 170755Z AUTO 00000KT 10SM CLR 19/17 A3029 RMK AO2
 
KSEZ - Sedona, Arizona, USA
Distance from station: N 100mi, 161km
Updated: Wed, 01-Aug-2018 4:55pm MST
NOT Current
Heavy thunderstorm, Rain, Mostly cloudy
Heavy thunderstorm, Rain, Mostly cloudy
 Wind from NE
Wind: NE 9 mph , 15 km/h
Temperature: 79°F , 26°C
Dew Point: 59°F , 15°C
Humidity: 51%
Barometer: 30.16 inHg , 1021.3 hPa
Summary: Heavy thunderstorm, Rain
Clouds: Mostly Cloudy
Visibility: 3 miles , 5 km
Cloud details: Partly Cloudy 3100 ft
Partly Cloudy 5000 ft
Mostly Cloudy 7500 ft
2018/08/01 23:55 KSEZ 012355Z AUTO 05008KT 3SM +TSRA SCT031 SCT050 BKN075 26/15 A3016 RMK AO2 LTG DSNT ALQS P0011
KSAD - Safford, Arizona, USA
Distance from station: ESE 150mi, 241km
Updated: Fri, 17-Aug-2018 12:51am MST
Clear
Clear
 Wind from NW
Wind: NW 7 mph , 11 km/h
Temperature: 79°F , 26°C
Dew Point: 64°F , 18°C
Humidity: 61%
Barometer: 30.11 inHg , 1019.6 hPa
Clouds: Clear
Visibility: 10 miles , 16 km
2018/08/17 07:51 KSAD 170751Z AUTO 31006KT 10SM CLR 26/18 A3011 RMK AO2 SLP136 T02560178